Time;durP1;ratioP1;P1;durP2;ratioP2;P2;SDS_P1;SDS_P2;PMS_P1;PMS_P2;Temp;Humidity;BMP_temperature;BMP_pressure;BME280_temperature;BME280_humidity;BME280_pressure;Samples;Min_cycle;Max_cycle;Signal;HPM_P1;HPM_P2
2022/03/24 00:01:30;;;;;;;65.07;47.03;;;;;;;;;;4809602;29;20494;-81
2022/03/24 00:03:56;;;;;;;61.08;44.78;;;;;;;;;;4809781;29;20045;-82
2022/03/24 00:06:22;;;;;;;66.03;47.42;;;;;;;;;;4824860;29;20085;-83
2022/03/24 00:08:48;;;;;;;63.65;45.70;;;;;;;;;;4809588;29;20049;-83
2022/03/24 00:11:17;;;;;;;64.75;46.80;;;;;;;;;;4825092;29;20054;-81
2022/03/24 00:13:43;;;;;;;67.30;46.08;;;;;;;;;;4825075;29;20105;-83
2022/03/24 00:16:10;;;;;;;71.43;46.78;;;;;;;;;;4825026;29;20050;-83
2022/03/24 00:18:36;;;;;;;64.15;45.65;;;;;;;;;;4809722;29;20045;-82
2022/03/24 00:21:02;;;;;;;64.55;45.83;;;;;;;;;;4825092;29;20042;-82
2022/03/24 00:23:28;;;;;;;64.88;45.85;;;;;;;;;;4809601;29;20053;-81
2022/03/24 00:25:54;;;;;;;62.28;44.88;;;;;;;;;;4825470;29;20136;-82
2022/03/24 00:28:22;;;;;;;65.60;46.70;;;;;;;;;;4825561;29;20046;-83
2022/03/24 00:30:48;;;;;;;64.30;45.78;;;;;;;;;;4824881;29;20631;-81
2022/03/24 00:33:14;;;;;;;65.22;45.80;;;;;;;;;;4824904;29;20050;-82
2022/03/24 00:35:40;;;;;;;66.32;48.20;;;;;;;;;;4809257;29;20050;-82
2022/03/24 00:38:06;;;;;;;68.07;46.75;;;;;;;;;;4809594;29;20061;-83
2022/03/24 00:40:32;;;;;;;69.22;48.00;;;;;;;;;;4809099;29;20483;-82
2022/03/24 00:42:59;;;;;;;71.53;48.95;;;;;;;;;;4809678;29;20057;-82
2022/03/24 00:45:25;;;;;;;71.38;48.75;;;;;;;;;;4809841;29;20089;-82
2022/03/24 00:47:51;;;;;;;73.38;48.88;;;;;;;;;;4809657;29;20089;-81
2022/03/24 00:50:18;;;;;;;68.53;47.70;;;;;;;;;;4824747;29;20053;-83
2022/03/24 00:52:45;;;;;;;72.30;49.88;;;;;;;;;;4808932;29;20542;-83
2022/03/24 00:55:19;;;;;;;75.72;53.60;;;;;;;;;;4824404;29;20053;-82
2022/03/24 00:57:46;;;;;;;73.63;51.70;;;;;;;;;;4824698;29;20050;-83
2022/03/24 01:00:15;;;;;;;81.88;54.00;;;;;;;;;;4808844;29;20061;-82
2022/03/24 01:02:44;;;;;;;81.40;55.13;;;;;;;;;;4824716;29;20085;-82
2022/03/24 01:05:15;;;;;;;82.80;55.75;;;;;;;;;;4824070;29;20569;-83
2022/03/24 01:07:42;;;;;;;86.80;57.05;;;;;;;;;;4825370;29;20153;-82
2022/03/24 01:10:09;;;;;;;79.13;53.65;;;;;;;;;;4809281;29;20058;-82
2022/03/24 01:12:36;;;;;;;84.18;55.38;;;;;;;;;;4809806;29;20060;-82
2022/03/24 01:15:04;;;;;;;83.30;55.90;;;;;;;;;;4809339;29;20106;-81
2022/03/24 01:17:31;;;;;;;85.22;57.22;;;;;;;;;;4825243;29;20054;-82
2022/03/24 01:19:57;;;;;;;90.13;59.22;;;;;;;;;;4823854;29;20227;-82
2022/03/24 01:22:23;;;;;;;87.20;57.15;;;;;;;;;;4824482;29;20060;-82
2022/03/24 01:24:50;;;;;;;92.18;59.53;;;;;;;;;;4808795;29;20054;-82
2022/03/24 01:27:16;;;;;;;90.45;61.40;;;;;;;;;;4824652;29;20106;-82
2022/03/24 01:29:42;;;;;;;92.53;61.58;;;;;;;;;;4823959;29;20452;-81
2022/03/24 01:32:08;;;;;;;97.63;63.88;;;;;;;;;;4808914;29;20049;-82
2022/03/24 01:34:35;;;;;;;93.63;60.35;;;;;;;;;;4823942;29;20049;-82
2022/03/24 01:37:01;;;;;;;97.00;61.53;;;;;;;;;;4808289;29;20065;-82
2022/03/24 01:39:27;;;;;;;93.53;59.70;;;;;;;;;;4809352;29;20061;-82
2022/03/24 01:41:54;;;;;;;88.90;57.28;;;;;;;;;;4823661;29;20050;-82
2022/03/24 01:44:21;;;;;;;88.22;57.55;;;;;;;;;;4809242;29;20057;-83
2022/03/24 01:46:54;;;;;;;91.03;59.10;;;;;;;;;;4824115;29;20065;-81
2022/03/24 01:49:20;;;;;;;92.55;59.72;;;;;;;;;;4824472;29;20053;-81
2022/03/24 01:51:46;;;;;;;88.30;59.75;;;;;;;;;;4823767;29;20102;-83
2022/03/24 01:54:13;;;;;;;94.93;58.28;;;;;;;;;;4823727;29;20053;-83
2022/03/24 01:56:40;;;;;;;96.80;60.30;;;;;;;;;;4808309;29;20495;-82
2022/03/24 01:59:09;;;;;;;88.32;57.75;;;;;;;;;;4824476;29;20085;-82
2022/03/24 02:01:37;;;;;;;87.75;59.40;;;;;;;;;;4823570;29;20046;-79
2022/03/24 02:04:06;;;;;;;92.05;59.50;;;;;;;;;;4810936;29;20410;-82
2022/03/24 02:06:36;;;;;;;90.68;59.80;;;;;;;;;;4812647;29;20061;-81
2022/03/24 02:09:04;;;;;;;93.18;60.97;;;;;;;;;;4811889;29;20133;-82
2022/03/24 02:11:30;;;;;;;90.07;59.78;;;;;;;;;;4812200;29;20562;-82
2022/03/24 02:13:57;;;;;;;97.47;61.13;;;;;;;;;;4811915;29;20050;-81
2022/03/24 02:16:30;;;;;;;95.57;62.20;;;;;;;;;;4812330;29;20049;-83
2022/03/24 02:18:59;;;;;;;100.90;62.58;;;;;;;;;;4811805;29;20407;-80
2022/03/24 02:21:28;;;;;;;92.75;59.05;;;;;;;;;;4826910;29;20056;-83
2022/03/24 02:23:54;;;;;;;90.13;58.05;;;;;;;;;;4826645;29;20409;-82
2022/03/24 02:26:21;;;;;;;87.72;56.40;;;;;;;;;;4826996;29;20053;-80
2022/03/24 02:28:47;;;;;;;93.95;59.28;;;;;;;;;;4825056;29;20085;-82
2022/03/24 02:31:13;;;;;;;85.80;57.80;;;;;;;;;;4813213;29;20065;-82
2022/03/24 02:33:39;;;;;;;89.47;57.95;;;;;;;;;;4828766;29;20133;-81
2022/03/24 02:36:06;;;;;;;91.10;58.70;;;;;;;;;;4829986;29;20305;-83
2022/03/24 02:38:33;;;;;;;88.95;58.33;;;;;;;;;;4830068;29;20053;-82
2022/03/24 02:40:59;;;;;;;91.95;58.22;;;;;;;;;;4811752;29;20077;-82
2022/03/24 02:43:27;;;;;;;85.47;55.17;;;;;;;;;;4827091;29;20050;-82
2022/03/24 02:45:54;;;;;;;88.22;55.88;;;;;;;;;;4811890;29;20092;-81
2022/03/24 02:48:23;;;;;;;89.47;59.97;;;;;;;;;;4826696;29;20165;-83
2022/03/24 02:50:49;;;;;;;89.38;59.00;;;;;;;;;;4826166;29;20065;-83
2022/03/24 02:53:19;;;;;;;90.40;57.17;;;;;;;;;;4826572;29;20450;-83
2022/03/24 02:55:45;;;;;;;89.65;57.10;;;;;;;;;;4825717;29;20146;-83
2022/03/24 02:58:11;;;;;;;94.88;60.10;;;;;;;;;;4826450;29;20066;-84
2022/03/24 03:00:38;;;;;;;88.97;57.40;;;;;;;;;;4827146;29;20448;-81
2022/03/24 03:03:04;;;;;;;92.93;60.88;;;;;;;;;;4811955;29;20064;-83
2022/03/24 03:05:30;;;;;;;94.88;60.90;;;;;;;;;;4828905;29;20133;-83
2022/03/24 03:07:56;;;;;;;100.65;61.00;;;;;;;;;;4827711;29;20078;-82
2022/03/24 03:10:22;;;;;;;88.80;57.95;;;;;;;;;;4812755;29;20050;-82
2022/03/24 03:12:48;;;;;;;93.93;60.72;;;;;;;;;;4826165;29;20046;-81
2022/03/24 03:15:14;;;;;;;90.97;59.42;;;;;;;;;;4825752;29;20064;-83
2022/03/24 03:17:40;;;;;;;94.50;57.33;;;;;;;;;;4826239;29;20473;-82
2022/03/24 03:20:07;;;;;;;100.28;60.40;;;;;;;;;;4826612;29;20407;-84
2022/03/24 03:22:33;;;;;;;98.18;59.28;;;;;;;;;;4825837;29;20205;-81
2022/03/24 03:24:59;;;;;;;98.25;60.70;;;;;;;;;;4825530;29;20049;-83
2022/03/24 03:27:27;;;;;;;101.43;62.53;;;;;;;;;;4810688;29;20136;-83
2022/03/24 03:29:53;;;;;;;97.60;58.88;;;;;;;;;;4810342;29;20490;-83
2022/03/24 03:32:21;;;;;;;97.22;58.58;;;;;;;;;;4810399;29;20049;-83
2022/03/24 03:34:48;;;;;;;94.88;57.90;;;;;;;;;;4810625;29;20053;-82
2022/03/24 03:37:14;;;;;;;102.38;61.70;;;;;;;;;;4826949;29;20074;-84
2022/03/24 03:39:40;;;;;;;101.18;62.08;;;;;;;;;;4810599;29;20110;-83
2022/03/24 03:42:08;;;;;;;99.82;63.08;;;;;;;;;;4810193;29;20079;-83
2022/03/24 03:44:34;;;;;;;99.20;62.22;;;;;;;;;;4810873;29;20058;-83
2022/03/24 03:47:01;;;;;;;98.55;60.65;;;;;;;;;;4826241;29;20049;-82
2022/03/24 03:49:27;;;;;;;98.55;60.70;;;;;;;;;;4811671;29;20096;-83
2022/03/24 03:51:54;;;;;;;97.03;60.47;;;;;;;;;;4811203;29;20065;-83
2022/03/24 03:54:21;;;;;;;98.43;61.22;;;;;;;;;;4811440;29;20388;-82
2022/03/24 03:56:47;;;;;;;101.38;62.83;;;;;;;;;;4826249;29;20495;-83
2022/03/24 03:59:14;;;;;;;99.00;60.42;;;;;;;;;;4826347;29;20051;-82
2022/03/24 04:01:40;;;;;;;105.45;61.60;;;;;;;;;;4825942;29;20053;-82
2022/03/24 04:04:12;;;;;;;97.22;59.70;;;;;;;;;;4809358;29;20050;-82
2022/03/24 04:06:38;;;;;;;99.30;62.35;;;;;;;;;;4825347;29;20058;-82
2022/03/24 04:09:04;;;;;;;102.47;61.33;;;;;;;;;;4809940;29;20050;-83
2022/03/24 04:11:30;;;;;;;100.75;61.78;;;;;;;;;;4810212;29;20064;-84
2022/03/24 04:13:56;;;;;;;101.78;59.17;;;;;;;;;;4825079;29;20141;-81
2022/03/24 04:16:22;;;;;;;104.85;61.80;;;;;;;;;;4809857;29;20050;-83
2022/03/24 04:18:49;;;;;;;105.13;63.10;;;;;;;;;;4824484;29;20062;-81
2022/03/24 04:21:16;;;;;;;102.47;62.67;;;;;;;;;;4825251;29;20117;-83
2022/03/24 04:23:42;;;;;;;101.70;60.35;;;;;;;;;;4809966;29;20176;-81
2022/03/24 04:26:11;;;;;;;97.90;61.05;;;;;;;;;;4824015;29;20057;-83
2022/03/24 04:28:37;;;;;;;102.15;60.65;;;;;;;;;;4824839;29;20057;-81
2022/03/24 04:31:03;;;;;;;101.50;62.28;;;;;;;;;;4824290;29;20102;-83
2022/03/24 04:33:30;;;;;;;102.18;61.97;;;;;;;;;;4809469;29;20050;-84
2022/03/24 04:35:58;;;;;;;102.93;62.20;;;;;;;;;;4824307;29;20056;-80
2022/03/24 04:38:24;;;;;;;104.72;64.32;;;;;;;;;;4824635;29;20065;-84
2022/03/24 04:40:50;;;;;;;106.10;64.50;;;;;;;;;;4809509;29;20114;-84
2022/03/24 04:43:16;;;;;;;111.93;65.38;;;;;;;;;;4824698;29;20050;-83
2022/03/24 04:45:43;;;;;;;104.93;63.92;;;;;;;;;;4824996;29;20046;-83
2022/03/24 04:48:09;;;;;;;110.35;63.22;;;;;;;;;;4809538;29;20054;-82
2022/03/24 04:50:35;;;;;;;109.63;63.90;;;;;;;;;;4825459;29;20092;-82
2022/03/24 04:53:02;;;;;;;104.13;63.13;;;;;;;;;;4809947;29;20110;-82
2022/03/24 04:55:29;;;;;;;99.97;60.17;;;;;;;;;;4824777;29;20055;-82
2022/03/24 04:57:55;;;;;;;108.18;62.80;;;;;;;;;;4824387;29;20085;-82
2022/03/24 05:00:21;;;;;;;103.07;59.40;;;;;;;;;;4809584;29;20054;-82
2022/03/24 05:02:47;;;;;;;103.35;61.85;;;;;;;;;;4809612;29;20049;-82
2022/03/24 05:05:15;;;;;;;98.90;60.83;;;;;;;;;;4809070;29;20060;-82
2022/03/24 05:07:41;;;;;;;117.90;66.00;;;;;;;;;;4824490;29;20510;-82
2022/03/24 05:10:08;;;;;;;102.22;61.13;;;;;;;;;;4808930;29;20070;-82
2022/03/24 05:12:34;;;;;;;100.75;60.38;;;;;;;;;;4824221;29;20049;-81
2022/03/24 05:15:00;;;;;;;93.70;57.60;;;;;;;;;;4809191;29;20053;-81
2022/03/24 05:17:26;;;;;;;95.82;55.53;;;;;;;;;;4809282;29;20050;-81
2022/03/24 05:19:52;;;;;;;104.00;61.22;;;;;;;;;;4824512;29;20050;-82
2022/03/24 05:22:19;;;;;;;94.10;56.55;;;;;;;;;;4809520;29;20089;-84
2022/03/24 05:24:45;;;;;;;90.93;54.63;;;;;;;;;;4809797;29;20054;-82
2022/03/24 05:27:11;;;;;;;90.10;54.08;;;;;;;;;;4824233;29;20053;-84
2022/03/24 05:29:38;;;;;;;87.45;53.28;;;;;;;;;;4820968;29;20058;-83
2022/03/24 05:32:04;;;;;;;91.68;54.00;;;;;;;;;;4805350;29;20054;-83
2022/03/24 05:34:31;;;;;;;89.47;54.25;;;;;;;;;;4808728;29;20061;-81
2022/03/24 05:36:57;;;;;;;85.38;52.40;;;;;;;;;;4809069;29;20062;-81
2022/03/24 05:39:23;;;;;;;93.07;52.72;;;;;;;;;;4830159;29;20064;-77
2022/03/24 05:41:50;;;;;;;97.50;55.92;;;;;;;;;;4812678;29;20050;-90
2022/03/24 05:44:16;;;;;;;102.03;58.03;;;;;;;;;;4828712;29;20046;-84
2022/03/24 05:46:44;;;;;;;99.03;58.15;;;;;;;;;;4813415;29;20242;-85
2022/03/24 05:49:15;;;;;;;95.88;54.42;;;;;;;;;;4827028;29;20056;-87
2022/03/24 05:51:43;;;;;;;91.38;51.85;;;;;;;;;;4827901;29;20050;-86
2022/03/24 05:54:10;;;;;;;87.53;54.25;;;;;;;;;;4812549;29;20061;-87
2022/03/24 05:56:36;;;;;;;97.50;56.53;;;;;;;;;;4812886;29;20050;-89
2022/03/24 05:59:02;;;;;;;93.28;56.80;;;;;;;;;;4828317;29;20057;-81
2022/03/24 06:01:28;;;;;;;92.13;54.63;;;;;;;;;;4813436;29;20102;-82
2022/03/24 06:03:55;;;;;;;90.13;53.38;;;;;;;;;;4814734;29;20046;-81
2022/03/24 06:06:25;;;;;;;92.10;54.05;;;;;;;;;;4817386;29;20089;-81
2022/03/24 06:08:52;;;;;;;92.13;54.28;;;;;;;;;;4829163;29;20053;-82
2022/03/24 06:11:19;;;;;;;94.03;55.42;;;;;;;;;;4813922;29;20132;-83
2022/03/24 06:13:48;;;;;;;93.13;57.05;;;;;;;;;;4815100;29;20054;-82
2022/03/24 06:16:14;;;;;;;98.18;57.95;;;;;;;;;;4813988;29;20486;-85
2022/03/24 06:18:40;;;;;;;90.30;56.38;;;;;;;;;;4814446;29;20050;-86
2022/03/24 06:21:07;;;;;;;88.28;54.78;;;;;;;;;;4828015;29;20092;-84
2022/03/24 06:23:33;;;;;;;90.88;55.72;;;;;;;;;;4813879;29;20057;-85
2022/03/24 06:26:00;;;;;;;97.68;57.20;;;;;;;;;;4813213;29;20053;-85
2022/03/24 06:28:26;;;;;;;92.53;55.90;;;;;;;;;;4813254;29;20046;-86
2022/03/24 06:30:52;;;;;;;98.97;57.33;;;;;;;;;;4813511;29;20062;-87
2022/03/24 06:33:18;;;;;;;91.15;56.80;;;;;;;;;;4812947;29;20117;-86
2022/03/24 06:35:45;;;;;;;91.25;56.13;;;;;;;;;;4813182;29;20141;-86
2022/03/24 06:38:11;;;;;;;80.18;52.40;;;;;;;;;;4827921;29;20062;-87
2022/03/24 06:40:38;;;;;;;79.57;52.05;;;;;;;;;;4813557;29;20085;-86
2022/03/24 06:43:06;;;;;;;87.65;53.50;;;;;;;;;;4828218;29;20509;-86
2022/03/24 06:45:32;;;;;;;90.80;56.78;;;;;;;;;;4813412;29;20243;-87
2022/03/24 06:47:58;;;;;;;85.05;56.88;;;;;;;;;;4812791;29;20085;-80
2022/03/24 06:50:24;;;;;;;86.53;57.22;;;;;;;;;;4812094;29;20058;-81
2022/03/24 06:52:51;;;;;;;87.70;57.83;;;;;;;;;;4828078;29;20471;-82
2022/03/24 06:55:17;;;;;;;80.88;54.67;;;;;;;;;;4827640;29;20108;-85
2022/03/24 06:57:43;;;;;;;81.85;54.63;;;;;;;;;;4828863;29;20082;-87
2022/03/24 07:00:14;;;;;;;80.53;55.33;;;;;;;;;;4814174;29;20085;-85
2022/03/24 07:02:43;;;;;;;88.25;58.17;;;;;;;;;;4827757;29;20065;-87
2022/03/24 07:05:11;;;;;;;90.18;59.20;;;;;;;;;;4826817;29;20053;-83
2022/03/24 07:07:37;;;;;;;;;;;;;;;;;;4827769;29;20053;-83
2022/03/24 07:10:03;;;;;;;;;;;;;;;;;;4812346;29;20356;-85
2022/03/24 07:12:29;;;;;;;;;;;;;;;;;;4827555;29;19924;-86
2022/03/24 07:14:55;;;;;;;;;;;;;;;;;;4812901;29;20234;-86
2022/03/24 07:17:21;;;;;;;;;;;;;;;;;;4812468;29;20329;-86
2022/03/24 07:19:47;;;;;;;;;;;;;;;;;;4828053;29;19925;-86
2022/03/24 07:22:13;;;;;;;;;;;;;;;;;;4827616;29;20288;-86
2022/03/24 07:24:40;;;;;;;86.57;62.22;;;;;;;;;;4827260;29;19924;-84
2022/03/24 07:27:06;;;;;;;89.60;63.90;;;;;;;;;;4826533;29;20046;-86
2022/03/24 07:29:32;;;;;;;81.88;63.85;;;;;;;;;;4811838;29;20057;-84
2022/03/24 07:32:02;;;;;;;84.63;62.20;;;;;;;;;;4811502;29;20113;-81
2022/03/24 07:34:28;;;;;;;92.38;62.88;;;;;;;;;;4811669;29;20161;-83
2022/03/24 07:36:55;;;;;;;87.07;65.60;;;;;;;;;;4825993;29;20149;-81
2022/03/24 07:39:21;;;;;;;85.55;67.30;;;;;;;;;;4826105;29;20050;-82
2022/03/24 07:41:47;;;;;;;94.32;68.60;;;;;;;;;;4811713;29;20161;-82
2022/03/24 07:44:13;;;;;;;86.32;65.82;;;;;;;;;;4811093;29;20056;-83
2022/03/24 07:46:41;;;;;;;80.57;62.83;;;;;;;;;;4811602;29;20046;-82
2022/03/24 07:49:07;;;;;;;;;;;;;;;;;;4826579;29;20054;-82
2022/03/24 07:51:33;;;;;;;;;;;;;;;;;;4811753;29;19988;-82
2022/03/24 07:53:59;;;;;;;;;;;;;;;;;;4827382;29;19925;-82
2022/03/24 07:56:25;;;;;;;;;;;;;;;;;;4827711;29;19948;-84
2022/03/24 07:58:51;;;;;;;;;;;;;;;;;;4812001;29;20509;-83
2022/03/24 08:01:17;;;;;;;;;;;;;;;;;;4826047;29;19924;-83
2022/03/24 08:03:43;;;;;;;;;;;;;;;;;;4826629;29;20361;-83
2022/03/24 08:06:09;;;;;;;;;;;;;;;;;;4826124;29;20011;-83
2022/03/24 08:08:35;;;;;;;;;;;;;;;;;;4826579;29;19971;-83
2022/03/24 08:11:01;;;;;;;;;;;;;;;;;;4810751;29;20166;-81
2022/03/24 08:13:27;;;;;;;;;;;;;;;;;;4811096;29;19927;-81
2022/03/24 08:15:56;;;;;;;;;;;;;;;;;;4825964;29;20187;-82
2022/03/24 08:18:22;;;;;;;;;;;;;;;;;;4810455;29;19931;-82
2022/03/24 08:20:49;;;;;;;;;;;;;;;;;;4827293;29;19959;-83
2022/03/24 08:23:15;;;;;;;;;;;;;;;;;;4827617;29;19924;-85
2022/03/24 08:25:41;;;;;;;;;;;;;;;;;;4811805;29;20349;-82
2022/03/24 08:28:07;;;;;;;;;;;;;;;;;;4825708;29;19927;-83
2022/03/24 08:30:33;;;;;;;;;;;;;;;;;;4825810;29;19921;-81
2022/03/24 08:32:59;;;;;;;;;;;;;;;;;;4810648;29;20361;-75
2022/03/24 08:35:25;;;;;;;;;;;;;;;;;;4810121;29;19972;-80
2022/03/24 08:37:52;;;;;;;;;;;;;;;;;;4825918;29;20341;-84
2022/03/24 08:40:18;;;;;;;;;;;;;;;;;;4811555;29;20075;-82
2022/03/24 08:42:44;;;;;;;;;;;;;;;;;;4809727;29;20364;-79
2022/03/24 08:45:10;;;;;;;;;;;;;;;;;;4809756;29;20010;-79
2022/03/24 08:47:35;;;;;;;;;;;;;;;;;;4825397;29;19924;-80
2022/03/24 08:50:01;;;;;;;;;;;;;;;;;;4810830;29;19934;-79
2022/03/24 08:52:27;;;;;;;;;;;;;;;;;;4810639;29;19924;-80
2022/03/24 08:54:54;;;;;;;;;;;;;;;;;;4810506;29;19931;-81
2022/03/24 08:57:25;;;;;;;;;;;;;;;;;;4825174;29;19924;-85
2022/03/24 08:59:51;;;;;;;;;;;;;;;;;;4825590;29;19953;-82
2022/03/24 09:02:17;;;;;;;;;;;;;;;;;;4826081;29;19924;-86
2022/03/24 09:04:43;;;;;;;;;;;;;;;;;;4811649;29;20019;-87
2022/03/24 09:07:10;;;;;;;;;;;;;;;;;;4810713;29;19931;-81
2022/03/24 09:09:36;;;;;;;;;;;;;;;;;;4811554;29;19932;-84
2022/03/24 09:12:02;;;;;;;;;;;;;;;;;;4827006;29;19936;-82
2022/03/24 09:14:28;;;;;;;;;;;;;;;;;;4814395;29;20002;-84
2022/03/24 09:16:54;;;;;;;;;;;;;;;;;;4812700;29;19931;-84
2022/03/24 09:19:20;;;;;;;;;;;;;;;;;;4828813;29;19924;-83
2022/03/24 09:21:46;;;;;;;;;;;;;;;;;;4815452;29;19925;-81
2022/03/24 09:24:12;;;;;;;;;;;;;;;;;;4830832;29;20387;-84
2022/03/24 09:26:38;;;;;;;;;;;;;;;;;;4821604;29;19969;-94
2022/03/24 09:29:04;;;;;;;;;;;;;;;;;;4830532;29;20373;-81
2022/03/24 09:31:30;;;;;;;63.40;47.50;;;;;;;;;;4813946;29;19928;-87
2022/03/24 09:33:56;;;;;;;56.90;50.75;;;;;;;;;;4824867;29;20424;-88
2022/03/24 09:36:22;;;;;;;59.15;51.30;;;;;;;;;;4819510;29;20474;-85
2022/03/24 09:38:48;;;;;;;58.03;50.87;;;;;;;;;;4820611;29;20438;-86
2022/03/24 09:41:16;;;;;;;56.17;46.63;;;;;;;;;;4823511;29;20767;-85
2022/03/24 09:43:43;;;;;;;59.17;46.78;;;;;;;;;;4829674;29;20058;-88
2022/03/24 09:46:09;;;;;;;57.17;48.78;;;;;;;;;;4834279;29;20057;-79
2022/03/24 09:48:36;;;;;;;59.45;49.33;;;;;;;;;;4847353;29;20084;-90
2022/03/24 09:51:02;;;;;;;64.32;49.58;;;;;;;;;;4830575;29;20177;-87
2022/03/24 09:53:28;;;;;;;64.80;49.08;;;;;;;;;;4834449;29;20129;-88
2022/03/24 09:55:55;;;;;;;60.63;46.17;;;;;;;;;;4839925;29;20050;-82
2022/03/24 09:58:25;;;;;;;57.42;44.78;;;;;;;;;;4847795;29;20078;-85
2022/03/24 10:00:51;;;;;;;58.25;45.13;;;;;;;;;;4829393;29;20058;-90
2022/03/24 10:03:18;;;;;;;59.28;45.42;;;;;;;;;;4833556;29;20491;-86
2022/03/24 10:06:04;;;;;;;62.00;46.10;;;;;;;;;;4837176;29;20145;-86
2022/03/24 10:08:31;;;;;;;59.78;44.75;;;;;;;;;;4829978;29;20538;-86
2022/03/24 10:10:58;;;;;;;61.60;46.60;;;;;;;;;;4830951;29;20049;-86
2022/03/24 10:13:26;;;;;;;57.78;45.92;;;;;;;;;;4829496;29;20160;-84
2022/03/24 10:15:52;;;;;;;57.92;45.00;;;;;;;;;;4813518;29;20229;-85
2022/03/24 10:18:18;;;;;;;55.95;45.83;;;;;;;;;;4813151;29;20083;-83
2022/03/24 10:20:44;;;;;;;60.22;46.15;;;;;;;;;;4813786;29;20054;-84
2022/03/24 10:23:12;;;;;;;61.42;42.38;;;;;;;;;;4828502;29;20558;-83
2022/03/24 10:25:40;;;;;;;58.55;44.90;;;;;;;;;;4827857;29;20050;-90
2022/03/24 10:28:08;;;;;;;62.83;44.83;;;;;;;;;;4814046;29;20053;-89
2022/03/24 10:30:47;;;;;;;52.10;39.63;;;;;;;;;;4828644;29;20054;-91
2022/03/24 10:33:26;;;;;;;57.33;43.30;;;;;;;;;;4813498;29;20089;-84
2022/03/24 10:36:04;;;;;;;51.75;38.85;;;;;;;;;;4814890;29;20054;-87
2022/03/24 10:38:34;;;;;;;51.50;35.83;;;;;;;;;;4812830;29;20061;-90
2022/03/24 10:41:15;;;;;;;44.47;33.85;;;;;;;;;;4813776;29;20077;-88
2022/03/24 10:43:41;;;;;;;43.67;34.40;;;;;;;;;;4828450;29;20052;-93
2022/03/24 10:46:37;;;;;;;46.10;33.70;;;;;;;;;;4813721;29;20694;-87
2022/03/24 10:49:17;;;;;;;51.95;32.85;;;;;;;;;;4816617;29;20407;-84
2022/03/24 10:51:44;;;;;;;48.60;34.55;;;;;;;;;;4812773;29;20398;-84
2022/03/24 10:54:13;;;;;;;44.35;35.25;;;;;;;;;;4813945;29;20050;-85
2022/03/24 10:56:44;;;;;;;46.70;34.72;;;;;;;;;;4828864;29;20050;-89
2022/03/24 10:59:11;;;;;;;44.88;32.03;;;;;;;;;;4813044;29;20056;-89
2022/03/24 11:01:38;;;;;;;45.15;31.52;;;;;;;;;;4829744;29;20049;-88
2022/03/24 11:04:04;;;;;;;50.67;35.30;;;;;;;;;;4828384;29;20106;-87
2022/03/24 11:06:30;;;;;;;43.17;32.55;;;;;;;;;;4828332;29;20077;-90
2022/03/24 11:09:01;;;;;;;51.70;32.95;;;;;;;;;;4829770;29;20050;-88
2022/03/24 11:11:28;;;;;;;43.90;34.30;;;;;;;;;;4827997;29;20046;-88
2022/03/24 11:13:56;;;;;;;47.95;35.30;;;;;;;;;;4812210;29;20077;-81
2022/03/24 11:16:23;;;;;;;47.47;35.65;;;;;;;;;;4812986;29;20062;-87
2022/03/24 11:18:50;;;;;;;47.20;34.60;;;;;;;;;;4816351;29;20531;-86
2022/03/24 11:21:16;;;;;;;49.85;35.80;;;;;;;;;;4828269;29;20136;-87
2022/03/24 11:23:44;;;;;;;51.40;37.67;;;;;;;;;;4828262;29;20141;-86
2022/03/24 11:26:11;;;;;;;48.15;38.00;;;;;;;;;;4814922;29;20057;-88
2022/03/24 11:28:38;;;;;;;51.42;35.90;;;;;;;;;;4815013;29;20098;-87
2022/03/24 11:31:15;;;;;;;47.17;36.25;;;;;;;;;;4823986;29;20073;-87
2022/03/24 11:33:42;;;;;;;48.25;35.15;;;;;;;;;;4845211;29;20041;-86
2022/03/24 11:36:09;;;;;;;51.42;33.17;;;;;;;;;;4834797;29;20129;-85
2022/03/24 11:38:36;;;;;;;50.33;36.60;;;;;;;;;;4819597;29;20080;-86
2022/03/24 11:41:12;;;;;;;51.60;35.60;;;;;;;;;;4812389;29;20089;-85
2022/03/24 11:43:41;;;;;;;52.22;33.83;;;;;;;;;;4811198;29;20511;-83
2022/03/24 11:46:11;;;;;;;48.20;33.60;;;;;;;;;;4826616;29;20057;-85
2022/03/24 11:48:41;;;;;;;50.90;36.30;;;;;;;;;;4827821;29;20038;-91
2022/03/24 11:51:20;;;;;;;54.42;38.85;;;;;;;;;;4813334;29;20110;-92
2022/03/24 11:53:59;;;;;;;52.35;38.05;;;;;;;;;;4827470;29;20050;-91
2022/03/24 11:56:26;;;;;;;52.00;39.70;;;;;;;;;;4811621;29;20049;-92
2022/03/24 11:58:55;;;;;;;49.35;37.03;;;;;;;;;;4827038;29;20057;-91
2022/03/24 12:01:23;;;;;;;46.35;36.78;;;;;;;;;;4827049;29;20050;-91
2022/03/24 12:03:56;;;;;;;50.85;38.22;;;;;;;;;;4812221;29;20056;-90
2022/03/24 12:06:45;;;;;;;49.40;37.40;;;;;;;;;;4811879;29;20508;-90
2022/03/24 12:09:23;;;;;;;46.40;35.63;;;;;;;;;;4827506;29;20061;-92
2022/03/24 12:12:06;;;;;;;47.47;35.42;;;;;;;;;;4827515;29;20049;-89
2022/03/24 12:14:32;;;;;;;49.80;35.83;;;;;;;;;;4826721;29;20103;-85
2022/03/24 12:17:02;;;;;;;49.92;35.45;;;;;;;;;;4827017;29;20050;-92
2022/03/24 12:19:49;;;;;;;49.45;35.85;;;;;;;;;;4826368;29;20144;-89
2022/03/24 12:22:32;;;;;;;53.58;36.00;;;;;;;;;;4826866;29;20077;-88
2022/03/24 12:25:01;;;;;;;49.72;34.58;;;;;;;;;;4826432;29;20057;-92
2022/03/24 12:27:28;;;;;;;49.50;32.83;;;;;;;;;;4810184;29;20049;-81
2022/03/24 12:30:11;;;;;;;53.17;34.83;;;;;;;;;;4828404;29;20061;-82
2022/03/24 12:32:37;;;;;;;47.27;34.17;;;;;;;;;;4809887;29;20054;-82
2022/03/24 12:35:04;;;;;;;45.08;33.08;;;;;;;;;;4810879;29;20050;-82
2022/03/24 12:37:33;;;;;;;49.38;35.22;;;;;;;;;;4825744;29;20065;-79
2022/03/24 12:40:06;;;;;;;43.70;32.80;;;;;;;;;;4813785;29;20090;-80
2022/03/24 12:42:47;;;;;;;43.38;33.10;;;;;;;;;;4809656;29;20178;-79
2022/03/24 12:45:28;;;;;;;48.78;32.42;;;;;;;;;;4825593;29;20527;-80
2022/03/24 12:48:14;;;;;;;45.55;33.47;;;;;;;;;;4825326;29;20045;-81
2022/03/24 12:50:43;;;;;;;51.17;35.75;;;;;;;;;;4810171;29;20060;-80
2022/03/24 12:53:10;;;;;;;50.40;36.83;;;;;;;;;;4825466;29;20060;-80
2022/03/24 12:55:37;;;;;;;45.45;35.72;;;;;;;;;;4825163;29;20054;-81
2022/03/24 12:58:05;;;;;;;48.17;35.03;;;;;;;;;;4810560;29;20054;-80
2022/03/24 13:00:35;;;;;;;51.45;36.38;;;;;;;;;;4824848;29;20099;-80
2022/03/24 13:03:03;;;;;;;50.58;35.97;;;;;;;;;;4825556;29;20057;-80
2022/03/24 13:05:30;;;;;;;55.80;37.15;;;;;;;;;;4824918;29;20517;-90
2022/03/24 13:07:57;;;;;;;50.60;37.38;;;;;;;;;;4826031;29;20054;-89
2022/03/24 13:10:24;;;;;;;47.83;36.85;;;;;;;;;;4811019;29;20050;-89
2022/03/24 13:12:54;;;;;;;55.55;38.53;;;;;;;;;;4825971;29;20046;-82
2022/03/24 13:15:22;;;;;;;49.70;37.00;;;;;;;;;;4810648;29;20058;-85
2022/03/24 13:17:50;;;;;;;49.78;36.13;;;;;;;;;;4810423;29;20042;-86
2022/03/24 13:20:16;;;;;;;49.92;35.70;;;;;;;;;;4811062;29;20069;-87
2022/03/24 13:22:45;;;;;;;47.90;36.03;;;;;;;;;;4810060;29;20064;-88
2022/03/24 13:25:11;;;;;;;47.70;35.80;;;;;;;;;;4811590;29;20097;-89
2022/03/24 13:27:40;;;;;;;46.58;36.13;;;;;;;;;;4825469;29;20387;-90
2022/03/24 13:30:10;;;;;;;49.25;36.80;;;;;;;;;;4809374;29;20056;-86
2022/03/24 13:32:37;;;;;;;51.38;37.20;;;;;;;;;;4810007;29;20060;-85
2022/03/24 13:35:07;;;;;;;49.25;38.15;;;;;;;;;;4824783;29;20057;-86
2022/03/24 13:37:35;;;;;;;48.03;37.20;;;;;;;;;;4808393;29;20125;-81
2022/03/24 13:40:02;;;;;;;50.80;38.88;;;;;;;;;;4824248;29;20482;-82
2022/03/24 13:42:28;;;;;;;51.08;39.42;;;;;;;;;;4823971;29;20053;-80
2022/03/24 13:44:54;;;;;;;56.65;39.53;;;;;;;;;;4824303;29;20050;-78
2022/03/24 13:47:23;;;;;;;53.53;40.33;;;;;;;;;;4808843;29;20440;-78
2022/03/24 13:49:54;;;;;;;63.30;40.78;;;;;;;;;;4809044;29;20054;-81
2022/03/24 13:52:37;;;;;;;54.28;39.50;;;;;;;;;;4824692;29;20050;-82
2022/03/24 13:55:11;;;;;;;54.55;41.13;;;;;;;;;;4824614;29;20489;-82
2022/03/24 13:57:55;;;;;;;51.33;38.97;;;;;;;;;;4807694;29;20613;-84
2022/03/24 14:00:27;;;;;;;55.35;38.53;;;;;;;;;;4811893;29;20045;-89
2022/03/24 14:02:58;;;;;;;55.97;37.47;;;;;;;;;;4808677;29;20058;-78
2022/03/24 14:05:24;;;;;;;51.35;36.67;;;;;;;;;;4810678;29;20054;-86
2022/03/24 14:08:00;;;;;;;51.85;37.50;;;;;;;;;;4826619;29;20089;-83
2022/03/24 14:10:43;;;;;;;55.78;36.53;;;;;;;;;;4811394;29;20058;-82
2022/03/24 14:13:20;;;;;;;54.17;37.15;;;;;;;;;;4826135;29;20049;-86
2022/03/24 14:15:46;;;;;;;52.00;37.35;;;;;;;;;;4826767;29;20056;-82
2022/03/24 14:18:16;;;;;;;50.70;37.13;;;;;;;;;;4811438;29;20474;-79
2022/03/24 14:20:43;;;;;;;49.38;33.88;;;;;;;;;;4811407;29;20058;-82
2022/03/24 14:23:10;;;;;;;47.80;33.65;;;;;;;;;;4812690;29;20092;-85
2022/03/24 14:25:37;;;;;;;48.72;32.00;;;;;;;;;;4816851;29;20049;-93
2022/03/24 14:28:03;;;;;;;43.40;32.05;;;;;;;;;;4835400;29;20050;-88
2022/03/24 14:30:30;;;;;;;47.67;29.25;;;;;;;;;;4813468;29;20042;-85
2022/03/24 14:32:56;;;;;;;42.10;29.05;;;;;;;;;;4812505;29;20414;-85
2022/03/24 14:35:24;;;;;;;39.97;26.25;;;;;;;;;;4812704;29;20054;-82
2022/03/24 14:37:58;;;;;;;45.22;24.25;;;;;;;;;;4826261;29;20561;-78